createdAt,value
2022-11-04T00:01:58.270Z,95465.44
2022-11-04T00:04:27.309Z,95458.72
2022-11-04T00:06:54.613Z,95451.09
2022-11-04T00:09:27.359Z,95448.38
2022-11-04T00:12:13.134Z,95446.31
2022-11-04T00:14:40.077Z,95436.94
2022-11-04T00:17:19.664Z,95436.72
2022-11-04T00:20:06.779Z,95428.72
2022-11-04T00:22:52.282Z,95444.31
2022-11-04T00:25:37.886Z,95437.13
2022-11-04T00:28:33.713Z,95424.81
2022-11-04T00:31:22.166Z,95433.00
2022-11-04T00:33:49.847Z,95434.41
2022-11-04T00:36:17.101Z,95426.94
2022-11-04T00:38:43.796Z,95432.44
2022-11-04T00:41:29.051Z,95433.91
2022-11-04T00:43:58.108Z,95439.66
2022-11-04T00:46:24.969Z,95423.47
2022-11-04T00:48:51.671Z,95422.28
2022-11-04T00:51:18.388Z,95425.41
2022-11-04T00:53:45.443Z,95426.19
2022-11-04T00:56:12.099Z,95426.66
2022-11-04T00:58:38.704Z,95420.31
2022-11-04T01:01:17.804Z,95414.97
2022-11-04T01:03:49.000Z,95423.78
2022-11-04T01:06:16.214Z,95422.34
2022-11-04T01:08:43.099Z,95426.41
2022-11-04T01:11:10.448Z,95422.22
2022-11-04T01:13:38.368Z,95415.00
2022-11-04T01:16:08.327Z,95419.31
2022-11-04T01:18:36.113Z,95414.41
2022-11-04T01:21:06.944Z,95420.59
2022-11-04T01:23:36.996Z,95427.53
2022-11-04T01:26:14.729Z,95419.13
2022-11-04T01:28:41.771Z,95415.81
2022-11-04T01:31:17.649Z,95404.69
2022-11-04T01:33:44.685Z,95407.38
2022-11-04T01:36:11.596Z,95400.84
2022-11-04T01:38:38.336Z,95391.38
2022-11-04T01:41:06.445Z,95383.38
2022-11-04T01:43:52.950Z,95378.69
2022-11-04T01:46:19.528Z,95379.16
2022-11-04T01:48:46.514Z,95375.03
2022-11-04T01:51:14.218Z,95375.44
2022-11-04T01:53:43.097Z,95372.63
2022-11-04T01:56:12.826Z,95363.56
2022-11-04T01:58:44.116Z,95363.56
2022-11-04T02:01:12.642Z,95364.41
2022-11-04T02:03:48.677Z,95359.28
2022-11-04T02:06:17.037Z,95351.66
2022-11-04T02:08:44.227Z,95354.97
2022-11-04T02:11:11.615Z,95354.31
2022-11-04T02:13:38.255Z,95349.84
2022-11-04T02:16:15.480Z,95345.50
2022-11-04T02:18:53.860Z,95332.38
2022-11-04T02:21:57.392Z,95335.06
2022-11-04T02:24:54.191Z,95332.59
2022-11-04T02:27:39.949Z,95320.88
2022-11-04T02:30:19.840Z,95327.41
2022-11-04T02:33:12.652Z,95318.41
2022-11-04T02:35:57.384Z,95314.09
2022-11-04T02:38:31.291Z,95307.94
2022-11-04T02:41:06.943Z,95306.50
2022-11-04T02:43:39.568Z,95302.56
2022-11-04T02:46:21.405Z,95306.06
2022-11-04T02:48:55.528Z,95294.78
2022-11-04T02:51:37.442Z,95285.78
2022-11-04T02:54:06.159Z,95282.09
2022-11-04T02:56:38.738Z,95281.06
2022-11-04T02:59:10.993Z,95276.56
2022-11-04T03:01:41.763Z,95278.19
2022-11-04T03:04:17.356Z,95276.13
2022-11-04T03:06:49.050Z,95272.81
2022-11-04T03:09:16.973Z,95268.88
2022-11-04T03:11:48.078Z,95273.66
2022-11-04T03:14:20.374Z,95278.59
2022-11-04T03:16:53.832Z,95266.94
2022-11-04T03:19:41.775Z,95267.94
2022-11-04T03:22:13.766Z,95266.28
2022-11-04T03:24:42.423Z,95262.22
2022-11-04T03:27:27.160Z,95272.88
2022-11-04T03:30:11.719Z,95263.84
2022-11-04T03:32:59.134Z,95267.53
2022-11-04T03:35:27.858Z,95270.84
2022-11-04T03:37:55.308Z,95265.72
2022-11-04T03:40:22.374Z,95275.53
2022-11-04T03:42:57.364Z,95270.59
2022-11-04T03:45:24.448Z,95274.91
2022-11-04T03:47:52.120Z,95273.06
2022-11-04T03:50:31.030Z,95277.59
2022-11-04T03:52:59.101Z,95275.72
2022-11-04T03:55:39.245Z,95272.81
2022-11-04T03:58:27.103Z,95273.47
2022-11-04T04:01:04.891Z,95274.91
2022-11-04T04:03:40.914Z,95273.91
2022-11-04T04:06:18.452Z,95276.56
2022-11-04T04:09:00.989Z,95274.53
2022-11-04T04:11:33.295Z,95276.19
2022-11-04T04:14:08.390Z,95270.84
2022-11-04T04:16:43.423Z,95266.13
2022-11-04T04:19:24.103Z,95267.78
2022-11-04T04:22:07.413Z,95271.47
2022-11-04T04:24:57.270Z,95269.38
2022-11-04T04:27:33.177Z,95258.53
2022-11-04T04:30:12.255Z,95262.22
2022-11-04T04:32:46.127Z,95253.19
2022-11-04T04:35:32.704Z,95248.28
2022-11-04T04:38:21.703Z,95241.69
2022-11-04T04:41:15.930Z,95243.72
2022-11-04T04:44:01.898Z,95243.50
2022-11-04T04:46:32.275Z,95238.78
2022-11-04T04:49:09.470Z,95242.91
2022-11-04T04:51:39.835Z,95245.56
2022-11-04T04:54:06.904Z,95244.53
2022-11-04T04:56:33.562Z,95225.69
2022-11-04T04:59:00.240Z,95235.97
2022-11-04T05:01:27.013Z,95222.44
2022-11-04T05:03:53.776Z,95234.31
2022-11-04T05:06:20.482Z,95229.81
2022-11-04T05:08:47.119Z,95217.50
2022-11-04T05:11:13.864Z,95232.28
2022-11-04T05:13:40.537Z,95225.09
2022-11-04T05:16:10.356Z,95217.94
2022-11-04T05:18:37.715Z,95228.22
2022-11-04T05:21:10.545Z,95218.38
2022-11-04T05:23:37.405Z,95219.97
2022-11-04T05:26:04.568Z,95215.66
2022-11-04T05:28:31.814Z,95208.06
2022-11-04T05:30:58.505Z,95198.81
2022-11-04T05:33:25.135Z,95187.16
2022-11-04T05:35:51.798Z,95179.75
2022-11-04T05:38:18.462Z,95190.06
2022-11-04T05:40:45.146Z,95174.88
2022-11-04T05:43:11.947Z,95178.34
2022-11-04T05:45:38.697Z,95180.44
2022-11-04T05:48:05.909Z,95183.50
2022-11-04T05:50:33.499Z,95179.00
2022-11-04T05:53:01.352Z,95180.66
2022-11-04T05:55:28.635Z,95184.13
2022-11-04T05:57:55.503Z,95180.66
2022-11-04T06:00:22.275Z,95183.50
2022-11-04T06:02:49.198Z,95182.66
2022-11-04T06:05:15.934Z,95183.31
2022-11-04T06:07:42.568Z,95180.66
2022-11-04T06:10:09.604Z,95175.53
2022-11-04T06:12:36.280Z,95168.78
2022-11-04T06:15:03.141Z,95171.81
2022-11-04T06:17:29.819Z,95175.06
2022-11-04T06:19:56.466Z,95177.34
2022-11-04T06:22:23.746Z,95176.09
2022-11-04T06:24:50.703Z,95178.75
2022-11-04T06:27:17.788Z,95181.84
2022-11-04T06:29:44.486Z,95179.00
2022-11-04T06:32:14.305Z,95186.78
2022-11-04T06:34:41.311Z,95184.31
2022-11-04T06:37:08.301Z,95192.94
2022-11-04T06:39:34.872Z,95198.25
2022-11-04T06:42:02.961Z,95195.38
2022-11-04T06:44:30.158Z,95199.50
2022-11-04T06:46:56.820Z,95200.34
2022-11-04T06:49:23.650Z,95193.78
2022-11-04T06:51:50.393Z,95188.84
2022-11-04T06:54:17.699Z,95190.88
2022-11-04T06:56:45.560Z,95180.41
2022-11-04T06:59:18.016Z,95175.69
2022-11-04T07:01:45.327Z,95167.53
2022-11-04T07:04:12.056Z,95168.34
2022-11-04T07:06:44.067Z,95172.44
2022-11-04T07:09:13.424Z,95181.50
2022-11-04T07:11:40.914Z,95184.16
2022-11-04T07:14:09.084Z,95178.59
2022-11-04T07:16:36.107Z,95165.47
2022-11-04T07:19:03.270Z,95154.41
2022-11-04T07:21:30.286Z,95157.31
2022-11-04T07:23:57.006Z,95161.47
2022-11-04T07:26:23.699Z,95157.34
2022-11-04T07:28:51.004Z,95166.78
2022-11-04T07:31:18.654Z,95154.06
2022-11-04T07:33:50.171Z,95155.69
2022-11-04T07:36:17.585Z,95155.94
2022-11-04T07:38:45.383Z,95141.78
2022-11-04T07:41:12.863Z,95129.47
2022-11-04T07:43:39.524Z,95127.44
2022-11-04T07:46:14.724Z,95128.69
2022-11-04T07:48:41.413Z,95128.69
2022-11-04T07:51:09.949Z,95116.19
2022-11-04T07:53:36.907Z,95112.72
2022-11-04T07:56:08.474Z,95108.22
2022-11-04T07:58:35.293Z,95103.28
2022-11-04T08:01:05.612Z,95096.31
2022-11-04T08:03:32.998Z,95100.22
2022-11-04T08:06:01.407Z,95090.78
2022-11-04T08:08:28.817Z,95093.88
2022-11-04T08:11:01.213Z,95091.22
2022-11-04T08:13:29.446Z,95083.03
2022-11-04T08:15:57.178Z,95080.75
2022-11-04T08:18:24.002Z,95074.00
2022-11-04T08:20:52.032Z,95066.00
2022-11-04T08:23:18.927Z,95063.13
2022-11-04T08:25:46.187Z,95063.50
2022-11-04T08:28:17.600Z,95060.84
2022-11-04T08:31:04.401Z,95051.22
2022-11-04T08:33:33.225Z,95043.84
2022-11-04T08:36:02.966Z,95050.81
2022-11-04T08:38:29.682Z,95046.94
2022-11-04T08:41:00.995Z,95051.09
2022-11-04T08:43:27.708Z,95049.88
2022-11-04T08:45:54.469Z,95057.44
2022-11-04T08:48:21.529Z,95050.03
2022-11-04T08:50:56.825Z,95042.69
2022-11-04T08:53:23.562Z,95033.03
2022-11-04T08:55:51.076Z,95023.38
2022-11-04T08:58:18.958Z,95025.03
2022-11-04T09:00:45.799Z,95013.94
2022-11-04T09:03:13.051Z,95004.13
2022-11-04T09:05:45.024Z,95004.13
2022-11-04T09:08:12.429Z,95000.00
2022-11-04T09:10:46.155Z,94998.34
2022-11-04T09:13:13.414Z,94998.34
2022-11-04T09:15:40.183Z,94988.72
2022-11-04T09:18:07.549Z,94991.78
2022-11-04T09:20:35.190Z,94984.00
2022-11-04T09:23:01.862Z,94985.66
2022-11-04T09:25:28.707Z,94985.63
2022-11-04T09:27:55.348Z,94984.00
2022-11-04T09:30:22.082Z,94985.03
2022-11-04T09:32:52.539Z,94974.97
2022-11-04T09:35:19.797Z,94979.47
2022-11-04T09:37:47.176Z,94967.38
2022-11-04T09:40:17.278Z,94973.34
2022-11-04T09:43:02.004Z,94972.09
2022-11-04T09:45:31.485Z,94973.94
2022-11-04T09:48:07.348Z,94960.59
2022-11-04T09:50:49.419Z,94957.34
2022-11-04T09:53:22.881Z,94962.25
2022-11-04T09:56:02.876Z,94953.22
2022-11-04T09:58:38.429Z,94954.66
2022-11-04T10:01:40.589Z,94948.69
2022-11-04T10:04:25.432Z,94934.75
2022-11-04T10:07:19.108Z,94926.97
2022-11-04T10:10:11.078Z,94919.56
2022-11-04T10:13:02.918Z,94914.44
2022-11-04T10:15:38.392Z,94906.25
2022-11-04T10:18:23.908Z,94898.25
2022-11-04T10:20:50.837Z,94889.84
2022-11-04T10:23:28.231Z,94891.66
2022-11-04T10:26:16.823Z,94884.28
2022-11-04T10:28:54.996Z,94873.41
2022-11-04T10:31:21.668Z,94877.72
2022-11-04T10:33:56.607Z,94869.31
2022-11-04T10:36:24.780Z,94859.47
2022-11-04T10:38:56.805Z,94864.22
2022-11-04T10:41:34.142Z,94855.78
2022-11-04T10:44:09.186Z,94839.56
2022-11-04T10:46:51.878Z,94834.44
2022-11-04T10:49:37.157Z,94830.97
2022-11-04T10:52:04.075Z,94826.03
2022-11-04T10:54:40.076Z,94823.97
2022-11-04T10:57:06.986Z,94816.97
2022-11-04T10:59:52.953Z,94814.50
2022-11-04T11:02:40.420Z,94807.31
2022-11-04T11:05:19.308Z,94796.88
2022-11-04T11:07:49.492Z,94802.22
2022-11-04T11:10:24.388Z,94783.75
2022-11-04T11:12:52.780Z,94785.19
2022-11-04T11:15:32.778Z,94787.66
2022-11-04T11:18:22.516Z,94787.47
2022-11-04T11:20:52.348Z,94789.53
2022-11-04T11:23:51.230Z,94773.91
2022-11-04T11:26:35.958Z,94777.44
2022-11-04T11:29:07.126Z,94787.06
2022-11-04T11:31:39.314Z,94777.63
2022-11-04T11:34:38.961Z,94793.84
2022-11-04T11:37:22.105Z,94800.59
2022-11-04T11:39:48.860Z,94800.59
2022-11-04T11:42:16.476Z,94805.09
2022-11-04T11:44:48.017Z,94799.56
2022-11-04T11:47:29.581Z,94794.22
2022-11-04T11:50:16.966Z,94789.94
2022-11-04T11:52:45.837Z,94789.13
2022-11-04T11:55:20.667Z,94781.91
2022-11-04T12:00:54.662Z,94764.91
2022-11-04T12:10:07.033Z,94744.78
2022-11-04T12:12:45.868Z,94749.31
2022-11-04T12:15:18.915Z,94743.97
2022-11-04T12:18:19.226Z,94735.19
2022-11-04T12:21:03.715Z,94735.59
2022-11-04T12:23:55.009Z,94737.00
2022-11-04T12:26:30.502Z,94740.28
2022-11-04T12:29:10.505Z,94729.44
2022-11-04T12:32:12.348Z,94729.22
2022-11-04T12:34:52.627Z,94723.09
2022-11-04T12:37:37.784Z,94714.44
2022-11-04T12:40:12.054Z,94744.22
2022-11-04T12:42:49.267Z,94736.59
2022-11-04T12:45:38.939Z,94745.00
2022-11-04T12:48:12.708Z,94751.34
2022-11-04T12:50:58.722Z,94750.13
2022-11-04T12:53:56.983Z,94771.47
2022-11-04T12:56:38.202Z,94777.63
2022-11-04T12:59:24.739Z,94770.25
2022-11-04T13:02:05.638Z,94772.69
2022-11-04T13:04:40.247Z,94781.75
2022-11-04T13:07:19.557Z,94793.22
2022-11-04T13:10:05.363Z,94802.44
2022-11-04T13:12:38.369Z,94798.97
2022-11-04T13:15:17.210Z,94812.31
2022-11-04T13:17:46.189Z,94832.81
2022-11-04T13:20:15.381Z,94859.06
2022-11-04T13:22:51.839Z,94874.88
2022-11-04T13:25:30.500Z,94882.84
2022-11-04T13:27:58.586Z,94890.25
2022-11-04T13:31:07.866Z,94906.78
2022-11-04T13:33:56.565Z,94903.88
2022-11-04T13:36:23.758Z,94877.56
2022-11-04T13:38:54.787Z,94876.75
2022-11-04T13:41:30.719Z,94901.34
2022-11-04T13:43:59.518Z,94914.84
2022-11-04T13:46:31.753Z,94926.31
2022-11-04T13:49:06.234Z,94925.28
2022-11-04T13:51:35.885Z,94934.59
2022-11-04T13:54:03.717Z,94935.16
2022-11-04T13:56:38.459Z,94934.38
2022-11-04T13:59:28.036Z,94935.25
2022-11-04T14:02:19.816Z,94940.97
2022-11-04T14:04:47.585Z,94954.66
2022-11-04T14:07:17.989Z,94953.16
2022-11-04T14:09:44.753Z,94967.19
2022-11-04T14:12:11.495Z,95001.41
2022-11-04T14:14:39.880Z,94998.47
2022-11-04T14:17:35.662Z,95000.75
2022-11-04T14:20:07.837Z,95000.13
2022-11-04T14:22:43.277Z,95016.19
2022-11-04T14:25:34.505Z,95007.19
2022-11-04T14:28:10.060Z,95006.94
2022-11-04T14:30:54.851Z,95011.81
2022-11-04T14:33:42.095Z,95007.69
2022-11-04T14:36:20.762Z,95000.53
2022-11-04T14:38:59.706Z,94990.03
2022-11-04T14:41:29.462Z,95002.03
2022-11-04T14:44:00.504Z,95018.63
2022-11-04T14:46:34.317Z,95014.25
2022-11-04T14:49:02.316Z,94999.97
2022-11-04T14:51:40.827Z,94994.19
2022-11-04T14:54:21.940Z,94997.59
2022-11-04T14:56:49.071Z,94997.59
2022-11-04T14:59:24.202Z,94997.53
2022-11-04T15:01:52.583Z,94984.69
2022-11-04T15:04:29.520Z,94977.81
2022-11-04T15:06:58.028Z,94972.50
2022-11-04T15:09:28.589Z,94967.19
2022-11-04T15:12:37.375Z,94965.91
2022-11-04T15:15:28.761Z,94977.38
2022-11-04T15:18:02.716Z,94970.22
2022-11-04T15:20:31.348Z,94973.66
2022-11-04T15:23:00.666Z,94990.13
2022-11-04T15:25:28.104Z,95001.53
2022-11-04T15:27:56.539Z,94985.38
2022-11-04T15:30:26.558Z,94989.56
2022-11-04T15:33:02.720Z,94995.84
2022-11-04T15:35:33.872Z,94997.56
2022-11-04T15:38:03.921Z,95007.91
2022-11-04T15:40:34.478Z,95017.69
2022-11-04T15:43:04.150Z,95016.69
2022-11-04T15:45:33.842Z,95018.88
2022-11-04T15:48:22.647Z,95017.59
2022-11-04T15:51:08.460Z,95006.19
2022-11-04T15:53:50.039Z,95016.88
2022-11-04T15:56:21.238Z,95017.78
2022-11-04T15:58:48.066Z,95033.13
2022-11-04T16:01:17.268Z,95037.00
2022-11-04T16:03:52.555Z,95048.97
2022-11-04T16:06:33.789Z,95060.09
2022-11-04T16:09:27.311Z,95067.94
2022-11-04T16:12:12.868Z,95074.59
2022-11-04T16:14:46.420Z,95082.72
2022-11-04T16:17:13.117Z,95082.91
2022-11-04T16:19:39.981Z,95095.06
2022-11-04T16:22:09.866Z,95091.81
2022-11-04T16:24:41.750Z,95100.13
2022-11-04T16:27:10.942Z,95107.72
2022-11-04T16:29:39.896Z,95112.34
2022-11-04T16:32:15.434Z,95123.66
2022-11-04T16:34:42.967Z,95110.13
2022-11-04T16:37:09.870Z,95122.19
2022-11-04T16:39:36.874Z,95124.84
2022-11-04T16:42:04.905Z,95122.19
2022-11-04T16:44:32.448Z,95124.03
2022-11-04T16:47:00.264Z,95124.38
2022-11-04T16:49:27.199Z,95126.38
2022-11-04T16:51:56.745Z,95128.38
2022-11-04T16:54:24.673Z,95136.00
2022-11-04T16:56:51.505Z,95134.25
2022-11-04T16:59:18.167Z,95142.53
2022-11-04T17:01:45.036Z,95147.81
2022-11-04T17:04:11.881Z,95152.00
2022-11-04T17:06:39.318Z,95142.38
2022-11-04T17:09:35.150Z,95157.59
2022-11-04T17:12:01.861Z,95168.19
2022-11-04T17:14:28.589Z,95180.78
2022-11-04T17:16:57.265Z,95177.50
2022-11-04T17:19:23.953Z,95181.47
2022-11-04T17:21:50.627Z,95184.13
2022-11-04T17:24:17.365Z,95194.41
2022-11-04T17:26:44.020Z,95202.38
2022-11-04T17:29:14.426Z,95203.03
2022-11-04T17:31:43.845Z,95213.31
2022-11-04T17:34:10.880Z,95213.63
2022-11-04T17:36:37.740Z,95213.50
2022-11-04T17:39:04.383Z,95206.72
2022-11-04T17:41:49.513Z,95211.69
2022-11-04T17:44:16.046Z,95214.31
2022-11-04T17:46:44.904Z,95205.25
2022-11-04T17:49:17.551Z,95211.88
2022-11-04T17:51:47.164Z,95208.22
2022-11-04T17:54:14.153Z,95235.19
2022-11-04T17:56:41.229Z,95225.25
2022-11-04T17:59:09.705Z,95231.06
2022-11-04T18:01:37.066Z,95226.91
2022-11-04T18:04:03.962Z,95226.91
2022-11-04T18:06:33.033Z,95226.41
2022-11-04T18:09:00.143Z,95219.81
2022-11-04T18:11:47.799Z,95224.97
2022-11-04T18:14:16.974Z,95238.34
2022-11-04T18:16:48.024Z,95242.00
2022-11-04T18:19:16.483Z,95257.19
2022-11-04T18:21:43.356Z,95265.97
2022-11-04T18:24:10.456Z,95277.03
2022-11-04T18:26:37.246Z,95279.19
2022-11-04T18:29:04.589Z,95290.78
2022-11-04T18:31:35.754Z,95298.03
2022-11-04T18:34:05.317Z,95304.66
2022-11-04T18:36:33.890Z,95305.16
2022-11-04T18:39:01.683Z,95308.09
2022-11-04T18:41:28.581Z,95318.84
2022-11-04T18:43:55.278Z,95317.38
2022-11-04T18:46:21.962Z,95326.47
2022-11-04T18:48:50.600Z,95317.34
2022-11-04T18:51:19.839Z,95320.69
2022-11-04T18:53:46.804Z,95327.47
2022-11-04T18:56:15.808Z,95326.63
2022-11-04T18:58:42.627Z,95329.94
2022-11-04T19:01:20.818Z,95324.13
2022-11-04T19:03:48.666Z,95324.47
2022-11-04T19:06:21.919Z,95325.47
2022-11-04T19:08:50.626Z,95328.94
2022-11-04T19:11:29.620Z,95338.69
2022-11-04T19:13:58.907Z,95343.97
2022-11-04T19:16:27.479Z,95332.41
2022-11-04T19:18:54.995Z,95333.09
2022-11-04T19:21:26.842Z,95331.25
2022-11-04T19:23:54.224Z,95340.19
2022-11-04T19:26:23.544Z,95336.03
2022-11-04T19:28:50.930Z,95340.69
2022-11-04T19:31:23.547Z,95337.03
2022-11-04T19:33:50.924Z,95343.16
2022-11-04T19:36:19.664Z,95349.59
2022-11-04T19:38:46.387Z,95351.56
2022-11-04T19:41:37.220Z,95353.72
2022-11-04T19:44:07.068Z,95351.56
2022-11-04T19:46:34.624Z,95364.47
2022-11-04T19:49:01.754Z,95370.22
2022-11-04T19:51:31.920Z,95373.38
2022-11-04T19:53:58.967Z,95379.47
2022-11-04T19:56:26.384Z,95379.00
2022-11-04T19:58:53.034Z,95386.06
2022-11-04T20:01:21.282Z,95381.09
2022-11-04T20:03:48.164Z,95387.19
2022-11-04T20:06:16.182Z,95388.84
2022-11-04T20:08:44.624Z,95392.47
2022-11-04T20:11:12.944Z,95393.47
2022-11-04T20:13:49.586Z,95400.06
2022-11-04T20:16:16.725Z,95405.34
2022-11-04T20:18:44.924Z,95402.06
2022-11-04T20:21:12.426Z,95401.19
2022-11-04T20:23:39.443Z,95395.59
2022-11-04T20:26:23.008Z,95408.59
2022-11-04T20:28:50.424Z,95411.09
2022-11-04T20:31:21.967Z,95413.88
2022-11-04T20:33:49.984Z,95416.00
2022-11-04T20:36:18.607Z,95422.13
2022-11-04T20:38:48.547Z,95423.13
2022-11-04T20:41:19.430Z,95417.31
2022-11-04T20:43:47.828Z,95418.28
2022-11-04T20:46:21.948Z,95422.06
2022-11-04T20:48:49.128Z,95412.34
2022-11-04T20:51:19.317Z,95415.00
2022-11-04T20:53:46.468Z,95427.34
2022-11-04T20:56:16.008Z,95436.78
2022-11-04T20:58:44.330Z,95432.47
2022-11-04T21:01:17.766Z,95427.34
2022-11-04T21:03:44.989Z,95425.84
2022-11-04T21:06:12.388Z,95420.72
2022-11-04T21:08:39.749Z,95421.59
2022-11-04T21:11:07.395Z,95423.69
2022-11-04T21:13:34.707Z,95426.34
2022-11-04T21:16:02.303Z,95429.47
2022-11-04T21:18:29.402Z,95433.09
2022-11-04T21:20:57.352Z,95435.56
2022-11-04T21:23:24.305Z,95435.88
2022-11-04T21:25:55.831Z,95436.88
2022-11-04T21:28:23.301Z,95428.13
2022-11-04T21:30:52.671Z,95436.19
2022-11-04T21:33:19.394Z,95439.81
2022-11-04T21:35:48.846Z,95434.38
2022-11-04T21:38:17.320Z,95433.53
2022-11-04T21:40:44.706Z,95429.88
2022-11-04T21:43:12.307Z,95429.88
2022-11-04T21:45:39.226Z,95424.59
2022-11-04T21:48:06.167Z,95437.25
2022-11-04T21:50:32.859Z,95436.44
2022-11-04T21:52:59.579Z,95431.16
2022-11-04T21:55:26.305Z,95434.78
2022-11-04T21:57:52.997Z,95436.44
2022-11-04T22:00:19.664Z,95442.03
2022-11-04T22:02:52.628Z,95440.91
2022-11-04T22:05:19.396Z,95446.03
2022-11-04T22:08:04.741Z,95452.97
2022-11-04T22:10:31.482Z,95443.38
2022-11-04T22:12:58.105Z,95441.56
2022-11-04T22:15:43.594Z,95442.69
2022-11-04T22:18:10.344Z,95431.47
2022-11-04T22:20:37.264Z,95443.19
2022-11-04T22:23:04.359Z,95442.50
2022-11-04T22:25:31.351Z,95439.03
2022-11-04T22:27:58.109Z,95441.69
2022-11-04T22:30:25.027Z,95434.72
2022-11-04T22:32:52.598Z,95437.22
2022-11-04T22:35:19.420Z,95443.50
2022-11-04T22:37:46.065Z,95431.44
2022-11-04T22:40:12.989Z,95435.88
2022-11-04T22:42:40.111Z,95439.03
2022-11-04T22:45:09.153Z,95434.72
2022-11-04T22:47:37.912Z,95442.66
2022-11-04T22:50:05.502Z,95451.09
2022-11-04T22:52:32.145Z,95452.06
2022-11-04T22:54:58.834Z,95449.91
2022-11-04T22:57:25.586Z,95447.94
2022-11-04T22:59:52.265Z,95455.63
2022-11-04T23:02:19.273Z,95461.06
2022-11-04T23:04:46.014Z,95449.53
2022-11-04T23:07:12.676Z,95448.09
2022-11-04T23:09:59.385Z,95461.97
2022-11-04T23:12:44.598Z,95452.78
2022-11-04T23:15:29.621Z,95450.25
2022-11-04T23:18:14.860Z,95448.25
2022-11-04T23:20:41.503Z,95446.97
2022-11-04T23:23:26.991Z,95441.16
2022-11-04T23:25:53.703Z,95438.81
2022-11-04T23:28:39.191Z,95444.41
2022-11-04T23:31:05.948Z,95436.34
2022-11-04T23:33:51.347Z,95444.25
2022-11-04T23:36:36.722Z,95457.31
2022-11-04T23:39:03.467Z,95477.59
2022-11-04T23:41:48.724Z,95486.34
2022-11-04T23:44:35.317Z,95497.72
2022-11-04T23:47:20.682Z,95491.47
2022-11-04T23:50:05.567Z,95492.59
2022-11-04T23:52:55.755Z,95499.00
2022-11-04T23:55:41.225Z,95511.25
2022-11-04T23:58:27.709Z,95507.94
